createdAt,value
2018-03-25T00:00:11.642Z,2.30
2018-03-25T00:02:39.802Z,2.07
2018-03-25T00:05:08.784Z,2.13
2018-03-25T00:07:37.946Z,2.00
2018-03-25T00:10:07.105Z,2.20
2018-03-25T00:12:35.511Z,1.77
2018-03-25T00:15:04.696Z,2.27
2018-03-25T00:17:33.050Z,2.23
2018-03-25T00:20:01.381Z,2.43
2018-03-25T00:22:30.035Z,2.30
2018-03-25T00:24:59.562Z,2.10
2018-03-25T00:27:28.232Z,2.10
2018-03-25T00:29:57.361Z,2.40
2018-03-25T00:32:25.932Z,2.20
2018-03-25T00:34:54.710Z,2.10
2018-03-25T00:37:23.882Z,2.30
2018-03-25T00:39:53.135Z,2.33
2018-03-25T00:42:22.067Z,1.93
2018-03-25T00:44:58.003Z,2.00
2018-03-25T00:47:27.113Z,2.30
2018-03-25T00:49:55.427Z,2.30
2018-03-25T00:52:23.819Z,2.10
2018-03-25T00:54:52.196Z,1.90
2018-03-25T00:57:23.659Z,2.20
2018-03-25T00:59:52.088Z,2.03
2018-03-25T01:02:20.413Z,2.03
2018-03-25T01:04:48.739Z,2.23
2018-03-25T01:07:17.116Z,1.97
2018-03-25T01:09:47.215Z,2.33
2018-03-25T01:12:16.475Z,2.07
2018-03-25T01:14:44.819Z,1.80
2018-03-25T01:17:13.126Z,2.30
2018-03-25T01:19:41.840Z,1.90
2018-03-25T01:22:10.172Z,2.17
2018-03-25T01:24:38.521Z,2.30
2018-03-25T01:27:06.923Z,2.00
2018-03-25T01:29:35.254Z,1.67
2018-03-25T01:32:03.614Z,2.13
2018-03-25T01:34:32.154Z,2.03
2018-03-25T01:37:00.467Z,2.20
2018-03-25T01:39:29.593Z,2.27
2018-03-25T01:41:58.200Z,2.33
2018-03-25T01:44:26.566Z,2.30
2018-03-25T01:46:54.882Z,2.10
2018-03-25T01:49:23.229Z,2.07
2018-03-25T01:51:51.546Z,2.37
2018-03-25T01:54:20.202Z,2.13
2018-03-25T01:56:49.790Z,2.27
2018-03-25T01:59:18.126Z,1.93
2018-03-25T02:01:47.403Z,2.00
2018-03-25T02:04:15.726Z,1.90
2018-03-25T02:06:44.460Z,2.00
2018-03-25T02:09:12.822Z,2.07
2018-03-25T02:11:41.191Z,2.03
2018-03-25T02:14:09.548Z,1.83
2018-03-25T02:16:38.827Z,2.07
2018-03-25T02:19:07.144Z,2.00
2018-03-25T02:21:35.967Z,2.00
2018-03-25T02:24:04.294Z,2.13
2018-03-25T02:26:32.927Z,2.00
2018-03-25T02:29:01.775Z,2.00
2018-03-25T02:31:30.113Z,2.00
2018-03-25T02:33:58.439Z,2.30
2018-03-25T02:36:27.386Z,1.90
2018-03-25T02:38:55.698Z,1.67
2018-03-25T02:41:24.072Z,1.70
2018-03-25T02:43:53.357Z,2.10
2018-03-25T02:46:21.711Z,2.20
2018-03-25T02:48:50.116Z,2.10
2018-03-25T02:51:18.447Z,1.77
2018-03-25T02:53:47.242Z,1.97
2018-03-25T02:56:16.245Z,2.07
2018-03-25T02:58:44.571Z,2.00
2018-03-25T03:01:12.958Z,1.87
2018-03-25T03:03:42.043Z,2.03
2018-03-25T03:06:11.300Z,2.20
2018-03-25T03:08:39.995Z,1.87
2018-03-25T03:11:09.021Z,2.10
2018-03-25T03:13:37.330Z,2.40
2018-03-25T03:16:05.666Z,1.80
2018-03-25T03:18:34.754Z,1.93
2018-03-25T03:21:03.087Z,1.97
2018-03-25T03:23:31.618Z,1.80
2018-03-25T03:25:59.953Z,2.00
2018-03-25T03:28:28.271Z,1.87
2018-03-25T03:30:56.607Z,2.13
2018-03-25T03:33:24.995Z,2.43
2018-03-25T03:35:54.516Z,1.97
2018-03-25T03:38:22.916Z,2.13
2018-03-25T03:40:52.633Z,1.80
2018-03-25T03:43:20.958Z,2.00
2018-03-25T03:46:10.562Z,1.90
2018-03-25T03:48:38.877Z,2.03
2018-03-25T03:51:07.979Z,1.90
2018-03-25T03:53:36.319Z,2.13
2018-03-25T03:56:04.695Z,1.93
2018-03-25T03:58:33.083Z,2.20
2018-03-25T04:01:02.348Z,2.03
2018-03-25T04:03:30.680Z,1.87
2018-03-25T04:05:59.938Z,1.90
2018-03-25T04:08:28.322Z,2.37
2018-03-25T04:10:56.644Z,1.80
2018-03-25T04:13:25.032Z,2.20
2018-03-25T04:15:54.185Z,2.43
2018-03-25T04:18:23.367Z,2.00
2018-03-25T04:20:52.505Z,1.97
2018-03-25T04:23:20.865Z,1.90
2018-03-25T04:25:50.017Z,1.77
2018-03-25T04:28:18.586Z,2.30
2018-03-25T04:30:47.675Z,1.97
2018-03-25T04:33:16.954Z,1.87
2018-03-25T04:35:46.485Z,1.97
2018-03-25T04:38:14.827Z,2.00
2018-03-25T04:40:43.930Z,1.93
2018-03-25T04:43:12.954Z,1.80
2018-03-25T04:45:41.857Z,2.07
2018-03-25T04:48:10.298Z,2.27
2018-03-25T04:50:39.472Z,1.83
2018-03-25T04:53:07.884Z,2.33
2018-03-25T04:55:37.421Z,1.80
2018-03-25T04:58:06.389Z,1.90
2018-03-25T05:00:34.691Z,2.10
2018-03-25T05:03:03.303Z,1.93
2018-03-25T05:05:32.474Z,1.77
2018-03-25T05:08:00.806Z,1.90
2018-03-25T05:10:29.187Z,2.07
2018-03-25T05:12:57.979Z,2.30
2018-03-25T05:15:27.048Z,2.23
2018-03-25T05:17:55.423Z,1.90
2018-03-25T05:20:23.786Z,1.87
2018-03-25T05:22:52.214Z,2.13
2018-03-25T05:25:21.666Z,2.40
2018-03-25T05:27:50.432Z,1.80
2018-03-25T05:30:19.616Z,1.53
2018-03-25T05:32:48.079Z,2.17
2018-03-25T05:35:16.427Z,2.10
2018-03-25T05:37:45.498Z,2.13
2018-03-25T05:40:14.630Z,2.23
2018-03-25T05:42:43.860Z,1.90
2018-03-25T05:45:12.234Z,2.13
2018-03-25T05:47:40.558Z,2.40
2018-03-25T05:50:09.155Z,1.80
2018-03-25T05:52:37.537Z,2.17
2018-03-25T05:55:05.876Z,2.10
2018-03-25T05:57:35.979Z,2.03
2018-03-25T06:00:05.886Z,2.00
2018-03-25T06:02:35.026Z,1.70
2018-03-25T06:05:04.282Z,2.10
2018-03-25T06:07:32.591Z,2.07
2018-03-25T06:10:01.865Z,2.00
2018-03-25T06:12:30.179Z,2.77
2018-03-25T06:14:58.612Z,2.20
2018-03-25T06:17:27.962Z,2.47
2018-03-25T06:19:57.039Z,2.20
2018-03-25T06:22:25.399Z,2.00
2018-03-25T06:24:53.814Z,3.07
2018-03-25T06:27:22.962Z,1.83
2018-03-25T06:29:51.350Z,2.30
2018-03-25T06:32:19.714Z,2.30
2018-03-25T06:34:48.687Z,2.23
2018-03-25T06:37:17.038Z,2.20
2018-03-25T06:39:55.790Z,2.47
2018-03-25T06:42:24.115Z,2.03
2018-03-25T06:44:52.460Z,2.00
2018-03-25T06:47:20.786Z,2.50
2018-03-25T06:49:49.420Z,2.43
2018-03-25T06:52:41.264Z,2.00
2018-03-25T06:55:09.611Z,2.20
2018-03-25T06:57:37.922Z,2.10
2018-03-25T07:00:07.038Z,2.40
2018-03-25T07:02:35.363Z,2.37
2018-03-25T07:05:10.567Z,2.00
2018-03-25T07:07:38.915Z,2.40
2018-03-25T07:10:08.402Z,1.97
2018-03-25T07:12:36.763Z,1.90
2018-03-25T07:15:06.199Z,1.90
2018-03-25T07:17:35.470Z,1.87
2018-03-25T07:20:05.511Z,1.80
2018-03-25T07:22:34.784Z,2.00
2018-03-25T07:25:03.108Z,1.87
2018-03-25T07:27:31.940Z,1.77
2018-03-25T07:30:00.315Z,1.63
2018-03-25T07:32:29.190Z,2.20
2018-03-25T07:34:57.613Z,1.97
2018-03-25T07:37:26.766Z,1.70
2018-03-25T07:39:55.138Z,1.87
2018-03-25T07:42:23.800Z,2.10
2018-03-25T07:44:52.910Z,1.80
2018-03-25T07:47:21.608Z,2.20
2018-03-25T07:49:49.929Z,1.70
2018-03-25T07:52:18.562Z,2.30
2018-03-25T07:54:48.416Z,2.10
2018-03-25T07:57:17.066Z,2.30
2018-03-25T07:59:45.400Z,2.10
2018-03-25T08:02:13.760Z,1.93
2018-03-25T08:04:42.162Z,2.33
2018-03-25T08:07:34.763Z,2.00
2018-03-25T08:10:03.115Z,2.30
2018-03-25T08:12:32.280Z,2.30
2018-03-25T08:15:01.599Z,2.13
2018-03-25T08:17:29.970Z,2.43
2018-03-25T08:19:58.360Z,1.80
2018-03-25T08:22:28.116Z,1.93
2018-03-25T08:24:56.443Z,2.07
2018-03-25T08:27:25.934Z,2.13
2018-03-25T08:29:54.332Z,1.80
2018-03-25T08:32:22.654Z,2.57
2018-03-25T08:34:51.024Z,2.00
2018-03-25T08:37:20.088Z,2.43
2018-03-25T08:39:51.204Z,2.30
2018-03-25T08:42:20.374Z,2.17
2018-03-25T08:44:49.562Z,2.20
2018-03-25T08:47:17.902Z,1.93
2018-03-25T08:49:46.243Z,1.90
2018-03-25T08:52:30.382Z,2.33
2018-03-25T08:54:59.614Z,2.10
2018-03-25T08:57:28.618Z,2.10
2018-03-25T08:59:56.956Z,1.90
2018-03-25T09:02:25.536Z,2.00
2018-03-25T09:04:55.349Z,2.00
2018-03-25T09:07:23.777Z,1.90
2018-03-25T09:09:52.170Z,2.03
2018-03-25T09:12:21.891Z,1.70
2018-03-25T09:14:51.188Z,1.73
2018-03-25T09:17:19.513Z,2.03
2018-03-25T09:19:48.076Z,2.07
2018-03-25T09:22:17.109Z,2.10
2018-03-25T09:24:46.297Z,2.10
2018-03-25T09:27:15.409Z,2.00
2018-03-25T09:29:43.826Z,1.83
2018-03-25T09:32:12.147Z,2.10
2018-03-25T09:34:41.316Z,1.90
2018-03-25T09:37:09.626Z,2.00
2018-03-25T09:39:37.980Z,2.00
2018-03-25T09:42:07.135Z,2.40
2018-03-25T09:44:35.477Z,1.87
2018-03-25T09:47:03.783Z,1.87
2018-03-25T09:49:33.027Z,2.13
2018-03-25T09:52:01.334Z,1.77
2018-03-25T09:54:30.030Z,2.13
2018-03-25T09:56:59.375Z,2.30
2018-03-25T09:59:27.783Z,2.20
2018-03-25T10:02:04.861Z,2.53
2018-03-25T10:04:34.157Z,2.53
2018-03-25T10:07:04.481Z,1.70
2018-03-25T10:09:32.931Z,1.80
2018-03-25T10:12:01.243Z,3.20
2018-03-25T10:14:31.726Z,2.30
2018-03-25T10:17:00.046Z,2.30
2018-03-25T10:19:28.392Z,2.30
2018-03-25T10:21:57.430Z,2.00
2018-03-25T10:24:28.349Z,2.10
2018-03-25T10:26:57.099Z,1.93
2018-03-25T10:29:26.359Z,2.07
2018-03-25T10:31:54.709Z,2.30
2018-03-25T10:34:23.358Z,2.30
2018-03-25T10:36:52.280Z,1.80
2018-03-25T10:39:20.627Z,2.20
2018-03-25T10:41:48.956Z,1.93
2018-03-25T10:44:17.947Z,2.23
2018-03-25T10:46:46.867Z,2.20
2018-03-25T10:49:15.191Z,2.20
2018-03-25T10:51:43.544Z,2.17
2018-03-25T10:54:12.494Z,2.10
2018-03-25T10:56:40.821Z,2.20
2018-03-25T10:59:09.509Z,1.90
2018-03-25T11:01:38.598Z,2.30
2018-03-25T11:04:06.966Z,2.00
2018-03-25T11:06:35.311Z,2.10
2018-03-25T11:09:03.651Z,2.03
2018-03-25T11:11:32.014Z,2.33
2018-03-25T11:14:00.390Z,2.10
2018-03-25T11:16:28.760Z,2.20
2018-03-25T11:18:57.357Z,2.37
2018-03-25T11:21:25.691Z,1.83
2018-03-25T11:23:54.051Z,2.10
2018-03-25T11:26:22.917Z,1.90
2018-03-25T11:28:51.926Z,2.13
2018-03-25T11:31:20.276Z,2.33
2018-03-25T11:33:48.887Z,2.13
2018-03-25T11:36:17.451Z,2.10
2018-03-25T11:38:45.816Z,2.00
2018-03-25T11:41:14.231Z,2.30
2018-03-25T11:43:42.823Z,1.90
2018-03-25T11:46:11.719Z,2.00
2018-03-25T11:48:41.213Z,2.33
2018-03-25T11:51:09.967Z,1.80
2018-03-25T11:53:39.439Z,2.20
2018-03-25T11:56:07.859Z,2.27
2018-03-25T11:58:36.182Z,1.77
2018-03-25T12:01:06.353Z,2.10
2018-03-25T12:03:34.720Z,2.23
2018-03-25T12:06:03.115Z,2.37
2018-03-25T12:08:32.330Z,2.50
2018-03-25T12:11:00.658Z,2.03
2018-03-25T12:13:29.378Z,2.27
2018-03-25T12:15:57.702Z,2.10
2018-03-25T12:18:26.031Z,2.30
2018-03-25T12:20:54.967Z,2.47
2018-03-25T12:23:23.334Z,2.17
2018-03-25T12:25:52.062Z,2.20
2018-03-25T12:28:20.476Z,2.37
2018-03-25T12:30:49.750Z,2.37
2018-03-25T12:33:18.570Z,2.00
2018-03-25T12:35:46.930Z,2.20
2018-03-25T12:38:15.559Z,2.23
2018-03-25T12:40:45.084Z,2.30
2018-03-25T12:43:15.102Z,2.03
2018-03-25T12:45:43.702Z,2.20
2018-03-25T12:48:12.958Z,2.20
2018-03-25T12:50:41.287Z,2.00
2018-03-25T12:53:09.959Z,1.80
2018-03-25T12:55:38.272Z,2.20
2018-03-25T12:58:06.606Z,2.67
2018-03-25T13:00:34.983Z,2.33
2018-03-25T13:03:04.235Z,2.17
2018-03-25T13:05:32.978Z,2.97
2018-03-25T13:08:02.246Z,2.03
2018-03-25T13:10:31.014Z,2.10
2018-03-25T13:12:59.354Z,2.30
2018-03-25T13:15:27.682Z,2.07
2018-03-25T13:17:56.018Z,2.30
2018-03-25T13:20:24.606Z,2.00
2018-03-25T13:22:53.011Z,2.10
2018-03-25T13:25:21.631Z,2.07
2018-03-25T13:27:50.044Z,2.30
2018-03-25T13:30:18.403Z,2.10
2018-03-25T13:32:47.660Z,2.30
2018-03-25T13:35:16.298Z,2.20
2018-03-25T13:37:44.674Z,2.37
2018-03-25T13:40:12.986Z,1.90
2018-03-25T13:42:42.090Z,2.73
2018-03-25T13:45:10.401Z,2.17
2018-03-25T13:47:39.039Z,2.00
2018-03-25T13:50:07.902Z,1.90
2018-03-25T13:52:36.213Z,2.20
2018-03-25T13:55:04.987Z,1.97
2018-03-25T13:57:34.215Z,2.00
2018-03-25T14:00:02.589Z,2.43
2018-03-25T14:02:30.915Z,2.23
2018-03-25T14:05:00.044Z,2.03
2018-03-25T14:07:28.372Z,2.90
2018-03-25T14:09:56.751Z,1.80
2018-03-25T14:12:25.145Z,2.27
2018-03-25T14:14:54.348Z,2.17
2018-03-25T14:17:22.668Z,2.10
2018-03-25T14:19:50.990Z,1.77
2018-03-25T14:22:20.721Z,2.37
2018-03-25T14:24:49.459Z,1.90
2018-03-25T14:27:18.115Z,2.03
2018-03-25T14:29:46.451Z,2.00
2018-03-25T14:32:14.772Z,1.80
2018-03-25T14:34:43.920Z,1.93
2018-03-25T14:37:14.200Z,2.03
2018-03-25T14:39:44.878Z,3.90
2018-03-25T14:42:13.739Z,2.20
2018-03-25T14:44:42.866Z,2.23
2018-03-25T14:47:11.267Z,4.27
2018-03-25T14:49:40.274Z,2.10
2018-03-25T14:52:13.083Z,2.47
2018-03-25T14:54:41.427Z,2.33
2018-03-25T14:57:09.750Z,2.37
2018-03-25T14:59:39.588Z,2.37
2018-03-25T15:02:08.746Z,2.23
2018-03-25T15:04:37.952Z,3.70
2018-03-25T15:07:07.240Z,2.67
2018-03-25T15:09:41.105Z,3.97
2018-03-25T15:12:09.522Z,3.13
2018-03-25T15:14:38.197Z,6.20
2018-03-25T15:17:06.505Z,7.67
2018-03-25T15:19:35.147Z,2.67
2018-03-25T15:22:03.697Z,4.07
2018-03-25T15:24:32.039Z,2.90
2018-03-25T15:27:01.217Z,2.50
2018-03-25T15:29:30.840Z,2.40
2018-03-25T15:32:07.568Z,4.33
2018-03-25T15:34:36.742Z,2.43
2018-03-25T15:37:05.053Z,3.83
2018-03-25T15:39:34.330Z,2.70
2018-03-25T15:42:04.438Z,2.70
2018-03-25T15:44:32.883Z,3.70
2018-03-25T15:47:01.250Z,2.10
2018-03-25T15:49:30.482Z,3.37
2018-03-25T15:51:58.918Z,2.40
2018-03-25T15:54:29.193Z,2.10
2018-03-25T15:56:59.460Z,3.70
2018-03-25T15:59:28.950Z,7.50
2018-03-25T16:01:57.294Z,3.97
2018-03-25T16:04:26.519Z,6.03
2018-03-25T16:06:55.575Z,3.90
2018-03-25T16:09:24.486Z,3.50
2018-03-25T16:11:53.638Z,14.83
2018-03-25T16:14:22.842Z,5.17
2018-03-25T16:16:51.221Z,6.53
2018-03-25T16:19:19.568Z,7.43
2018-03-25T16:21:48.475Z,7.70
2018-03-25T16:24:17.620Z,6.23
2018-03-25T16:26:46.018Z,9.97
2018-03-25T16:29:14.655Z,7.00
2018-03-25T16:31:42.999Z,6.57
2018-03-25T16:34:12.086Z,10.63
2018-03-25T16:36:41.018Z,9.00
2018-03-25T16:39:09.335Z,5.37
2018-03-25T16:41:37.664Z,14.10
2018-03-25T16:44:06.037Z,11.80
2018-03-25T16:46:34.371Z,9.80
2018-03-25T16:49:03.500Z,8.87
2018-03-25T16:51:32.582Z,7.20
2018-03-25T16:54:01.742Z,11.40
2018-03-25T16:56:30.082Z,5.37
2018-03-25T16:59:00.551Z,4.20
2018-03-25T17:01:30.441Z,3.60
2018-03-25T17:04:00.601Z,7.60
2018-03-25T17:09:17.535Z,178.10
2018-03-25T17:11:46.310Z,224.73
2018-03-25T17:14:15.303Z,215.10
2018-03-25T17:16:44.446Z,131.80
2018-03-25T17:19:13.151Z,95.97
2018-03-25T17:21:56.156Z,86.30
2018-03-25T17:24:24.574Z,72.37
2018-03-25T17:26:54.224Z,61.43
2018-03-25T17:29:25.940Z,47.33
2018-03-25T17:31:54.728Z,39.33
2018-03-25T17:34:23.134Z,35.07
2018-03-25T17:36:52.306Z,34.17
2018-03-25T17:39:21.746Z,34.17
2018-03-25T17:41:50.109Z,25.77
2018-03-25T17:44:18.490Z,24.63
2018-03-25T17:46:46.971Z,20.83
2018-03-25T17:49:16.150Z,24.40
2018-03-25T17:51:45.323Z,23.23
2018-03-25T17:54:20.673Z,15.27
2018-03-25T17:56:49.805Z,26.37
2018-03-25T17:59:18.881Z,20.70
2018-03-25T18:01:47.196Z,17.27
2018-03-25T18:04:15.547Z,13.60
2018-03-25T18:06:44.642Z,15.63
2018-03-25T18:09:13.031Z,15.10
2018-03-25T18:11:42.278Z,15.43
2018-03-25T18:14:10.924Z,14.13
2018-03-25T18:16:40.908Z,11.80
2018-03-25T18:19:09.267Z,14.20
2018-03-25T18:21:37.608Z,17.07
2018-03-25T18:24:05.945Z,14.60
2018-03-25T18:26:34.289Z,9.33
2018-03-25T18:29:03.480Z,9.90
2018-03-25T18:31:32.618Z,10.90
2018-03-25T18:34:01.095Z,9.27
2018-03-25T18:36:30.546Z,12.37
2018-03-25T18:38:59.638Z,11.97
2018-03-25T18:41:28.000Z,9.67
2018-03-25T18:43:57.201Z,9.03
2018-03-25T18:46:25.604Z,8.30
2018-03-25T18:48:53.942Z,8.57
2018-03-25T18:51:23.172Z,8.47
2018-03-25T18:53:51.515Z,6.07
2018-03-25T18:56:19.888Z,10.20
2018-03-25T18:58:48.262Z,8.33
2018-03-25T19:01:16.630Z,8.33
2018-03-25T19:03:45.931Z,8.50
2018-03-25T19:06:14.746Z,8.83
2018-03-25T19:08:43.913Z,5.73
2018-03-25T19:11:12.239Z,6.20
2018-03-25T19:13:40.646Z,6.50
2018-03-25T19:16:09.770Z,4.83
2018-03-25T19:18:38.108Z,6.17
2018-03-25T19:21:07.175Z,5.97
2018-03-25T19:23:35.831Z,6.07
2018-03-25T19:26:05.067Z,6.97
2018-03-25T19:28:53.870Z,5.63
2018-03-25T19:31:23.105Z,9.97
2018-03-25T19:33:51.435Z,5.23
2018-03-25T19:36:20.894Z,5.47
2018-03-25T19:38:49.331Z,7.57
2018-03-25T19:41:18.063Z,5.27
2018-03-25T19:43:46.395Z,6.40
2018-03-25T19:46:14.737Z,5.23
2018-03-25T19:48:43.032Z,6.23
2018-03-25T19:51:12.261Z,6.53
2018-03-25T19:53:42.319Z,7.13
2018-03-25T19:56:10.670Z,6.97
2018-03-25T19:58:38.994Z,5.83
2018-03-25T20:01:07.329Z,4.73
2018-03-25T20:03:35.680Z,6.93
2018-03-25T20:06:04.783Z,5.43
2018-03-25T20:08:33.870Z,5.10
2018-03-25T20:11:03.027Z,7.27
2018-03-25T20:13:31.752Z,6.17
2018-03-25T20:16:00.096Z,5.37
2018-03-25T20:18:28.417Z,6.20
2018-03-25T20:20:58.246Z,5.47
2018-03-25T20:23:26.619Z,7.10
2018-03-25T20:25:55.714Z,4.90
2018-03-25T20:28:24.786Z,4.80
2018-03-25T20:30:53.927Z,4.30
2018-03-25T20:33:22.652Z,8.80
2018-03-25T20:35:50.979Z,6.53
2018-03-25T20:38:20.062Z,5.07
2018-03-25T20:40:48.433Z,5.47
2018-03-25T20:43:16.795Z,4.37
2018-03-25T20:45:45.648Z,5.37
2018-03-25T20:48:13.969Z,5.00
2018-03-25T20:50:42.320Z,7.20
2018-03-25T20:53:10.663Z,5.80
2018-03-25T20:55:39.755Z,7.97
2018-03-25T20:58:08.845Z,4.53
2018-03-25T21:00:37.201Z,3.77
2018-03-25T21:03:05.563Z,6.57
2018-03-25T21:05:33.901Z,5.07
2018-03-25T21:08:02.212Z,4.83
2018-03-25T21:10:30.538Z,5.60
2018-03-25T21:12:59.411Z,3.87
2018-03-25T21:15:27.803Z,4.93
2018-03-25T21:17:57.042Z,5.00
2018-03-25T21:20:25.946Z,5.03
2018-03-25T21:22:54.293Z,5.10
2018-03-25T21:25:24.074Z,3.40
2018-03-25T21:27:52.412Z,4.87
2018-03-25T21:30:21.466Z,4.03
2018-03-25T21:32:49.855Z,5.83
2018-03-25T21:35:18.244Z,5.70
2018-03-25T21:37:47.251Z,5.10
2018-03-25T21:40:16.416Z,3.30
2018-03-25T21:43:01.868Z,6.77
2018-03-25T21:45:30.773Z,5.77
2018-03-25T21:47:59.541Z,6.20
2018-03-25T21:50:28.887Z,6.70
2018-03-25T21:52:57.288Z,5.23
2018-03-25T21:55:28.566Z,4.60
2018-03-25T21:57:57.840Z,4.27
2018-03-25T22:00:26.646Z,6.37
2018-03-25T22:02:55.835Z,8.50
2018-03-25T22:05:24.990Z,4.33
2018-03-25T22:08:20.810Z,7.83
2018-03-25T22:10:49.391Z,5.00
2018-03-25T22:13:17.723Z,6.87
2018-03-25T22:15:46.285Z,6.17
2018-03-25T22:18:15.570Z,3.90
2018-03-25T22:20:44.880Z,7.00
2018-03-25T22:23:13.239Z,5.40
2018-03-25T22:25:41.567Z,6.27
2018-03-25T22:28:09.899Z,4.63
2018-03-25T22:30:38.215Z,5.67
2018-03-25T22:33:09.170Z,4.63
2018-03-25T22:35:38.238Z,3.93
2018-03-25T22:38:06.571Z,4.47
2018-03-25T22:40:34.890Z,3.80
2018-03-25T22:43:03.291Z,5.60
2018-03-25T22:45:32.741Z,3.60
2018-03-25T22:48:01.089Z,4.70
2018-03-25T22:50:29.750Z,4.93
2018-03-25T22:52:58.318Z,3.73
2018-03-25T22:55:26.628Z,4.13
2018-03-25T22:58:03.034Z,3.47
2018-03-25T23:00:31.402Z,4.10
2018-03-25T23:03:00.660Z,4.20
2018-03-25T23:05:29.008Z,3.97
2018-03-25T23:07:58.078Z,3.33
2018-03-25T23:10:26.746Z,3.77
2018-03-25T23:12:55.844Z,4.77
2018-03-25T23:15:24.194Z,5.63
2018-03-25T23:17:53.346Z,4.53
2018-03-25T23:20:21.677Z,3.63
2018-03-25T23:22:50.045Z,3.03
2018-03-25T23:25:18.698Z,3.57
2018-03-25T23:27:47.946Z,4.70
2018-03-25T23:30:20.678Z,6.20
2018-03-25T23:32:49.903Z,5.00
2018-03-25T23:35:18.235Z,3.97
2018-03-25T23:37:46.561Z,4.40
2018-03-25T23:40:15.145Z,3.53
2018-03-25T23:42:49.185Z,4.73
2018-03-25T23:45:17.815Z,4.30
2018-03-25T23:47:46.141Z,3.40
2018-03-25T23:50:14.478Z,4.20
2018-03-25T23:52:43.381Z,3.67
2018-03-25T23:55:12.163Z,3.93
2018-03-25T23:57:41.140Z,3.77
